Sea Brave — V7UC5 — position and weather

sailwx.info

Track history (hours):
 
Tides and Currents Weather Stations Pressure Air Temp Water Temp Dewpoint Dewpoint Depression Visibility Wind Speed Wind Dir Waves Ship Positions

Sea Brave

Last reported at 2017-Oct-18 19:35 UTC. Time now 2017-Oct-19 09:31 UTC.
Position N 35°56' E 014°52'.

Length 177 m; draft 8.6 m.

Type: Cargo ship. MMSI: 538003930.

Date/timePositionNaut miles runAvg speedWind from/ knotsBaromVisibWave heightAir tempDewpointWater temp
2017-Oct-18 19:35N 35°56' E 014°52'112.3
2017-Oct-18 19:30N 35°56' E 014°51'5 9.0
2017-Oct-18 19:00N 35°55' E 014°45'0 0.5
2017-Oct-18 18:28N 35°55' E 014°46'0 0.0
2017-Oct-18 17:58N 35°55' E 014°46'0 0.0
2017-Oct-18 17:19N 35°55' E 014°46'0 0.0
2017-Oct-18 16:58N 35°55' E 014°46'0 0.0
2017-Oct-18 16:28N 35°55' E 014°46'0 0.0
2017-Oct-18 15:58N 35°55' E 014°46'0 0.0
2017-Oct-18 15:25N 35°55' E 014°46'0 0.0
2017-Oct-18 14:58N 35°55' E 014°46'0 0.0
2017-Oct-18 13:58N 35°55' E 014°46'0 0.0
2017-Oct-18 13:28N 35°55' E 014°46'0 0.0
2017-Oct-18 12:58N 35°55' E 014°46'0 0.3
2017-Oct-18 12:26N 35°55' E 014°45'1 3.2
2017-Oct-18 12:00N 35°54' E 014°44'3 6.2
2017-Oct-18 11:30N 35°57' E 014°41'611.3
2017-Oct-18 11:00N 35°60' E 014°35'612.5
2017-Oct-18 10:30N 36°03' E 014°29'612.5
2017-Oct-18 10:00N 36°06' E 014°22'612.6
2017-Oct-18 09:30N 36°10' E 014°16'612.7
2017-Oct-18 09:00N 36°13' E 014°09'612.7
2017-Oct-18 08:30N 36°15' E 014°02'612.6
2017-Oct-18 08:00N 36°18' E 013°54'612.6
2017-Oct-18 07:30N 36°21' E 013°47'612.5
2017-Oct-18 07:00N 36°23' E 013°40'612.4
2017-Oct-18 06:30N 36°26' E 013°33'612.3
2017-Oct-18 06:00N 36°29' E 013°27'712.1
2017-Oct-18 05:27N 36°32' E 013°19'612.2
2017-Oct-18 05:00N 36°34' E 013°13'612.2
2017-Oct-18 04:30N 36°37' E 013°06'612.4
2017-Oct-18 04:00N 36°39' E 012°59'612.4
2017-Oct-18 03:30N 36°42' E 012°53'612.2
2017-Oct-18 02:59N 36°45' E 012°45'612.1
2017-Oct-18 02:30N 36°47' E 012°39'812.0
2017-Oct-18 01:48N 36°51' E 012°29'412.1
2017-Oct-18 01:27N 36°53' E 012°24'912.2
2017-Oct-18 00:45N 36°57' E 012°15'312.4
2017-Oct-18 00:30N 36°58' E 012°11'7012.5
2017-Oct-17 18:52N 37°27' E 010°51'412.1
2017-Oct-17 18:30N 37°28' E 010°45'612.0
2017-Oct-17 18:00N 37°30' E 010°38'612.1
2017-Oct-17 17:30N 37°31' E 010°31'1912.1
2017-Oct-17 15:57N 37°34' E 010°07'1612.6
2017-Oct-17 14:40N 37°31' E 009°47'212.5
2017-Oct-17 14:30N 37°31' E 009°45'10512.0
2017-Oct-17 05:46N 37°17' E 007°34'612.4
2017-Oct-17 05:19N 37°17' E 007°27'25412.5
2017-Oct-16 08:56N 36°52' E 002°10'612.9
2017-Oct-16 08:30N 36°51' E 002°04'4412.4
2017-Oct-16 04:57N 36°43' E 001°09'511.8
2017-Oct-16 04:30N 36°42' E 001°03'2611.3
2017-Oct-16 02:13N 36°37' E 000°31'411.9
2017-Oct-16 01:52N 36°37' E 000°26'4211.7
2017-Oct-15 22:18N 36°29' W 000°25'911.3
2017-Oct-15 21:31N 36°27' W 000°36'011.3
2017-Oct-15 21:30N 36°27' W 000°36'611.2
2017-Oct-15 20:57N 36°26' W 000°44'3411.7
2017-Oct-15 18:04N 36°20' W 001°25'312.1
2017-Oct-15 17:51N 36°19' W 001°28'17311.9
2017-Oct-15 03:20N 36°01' W 005°01'412.8
2017-Oct-15 03:00N 36°00' W 005°06'612.8
2017-Oct-15 02:30N 35°60' W 005°14'612.6
2017-Oct-15 02:00N 35°59' W 005°21'611.9
2017-Oct-15 01:30N 35°57' W 005°28'711.7
2017-Oct-15 00:55N 35°55' W 005°37'513.1
2017-Oct-15 00:30N 35°54' W 005°43'612.5
2017-Oct-15 00:00N 35°52' W 005°51'611.9
2017-Oct-14 23:28N 35°50' W 005°58'3811.5
2017-Oct-14 20:11N 35°22' W 006°29'312.1
2017-Oct-14 19:56N 35°20' W 006°31'  
2017-Oct-12 07:15N 33°07' W 008°38'0 0.0
2017-Oct-12 07:00N 33°07' W 008°38'0 0.0
2017-Oct-12 05:36N 33°07' W 008°38'0 0.1
2017-Oct-12 05:30N 33°07' W 008°38'0 0.0
2017-Oct-12 04:51N 33°07' W 008°38'0 0.0
2017-Oct-12 01:51N 33°07' W 008°38'  
2017-Oct-08 20:42N 33°15' W 008°39'2 9.0
2017-Oct-08 20:30N 33°17' W 008°37'  
Track history (hours):
 
Tides and Currents Weather Stations Pressure Air Temp Water Temp Dewpoint Dewpoint Depression Visibility Wind Speed Wind Dir Waves Ship Positions

Sea Brave

Last reported at 2017-Oct-18 19:35 UTC. Time now 2017-Oct-19 09:31 UTC.
Position N 35°56' E 014°52'.

Length 177 m; draft 8.6 m.

Type: Cargo ship. MMSI: 538003930.

Date/timePositionNaut miles runAvg speedWind from/ knotsBaromVisibWave heightAir tempDewpointWater temp
2017-Oct-18 19:35N 35°56' E 014°52'112.3
2017-Oct-18 19:30N 35°56' E 014°51'5 9.0
2017-Oct-18 19:00N 35°55' E 014°45'0 0.5
2017-Oct-18 18:28N 35°55' E 014°46'0 0.0
2017-Oct-18 17:58N 35°55' E 014°46'0 0.0
2017-Oct-18 17:19N 35°55' E 014°46'0 0.0
2017-Oct-18 16:58N 35°55' E 014°46'0 0.0
2017-Oct-18 16:28N 35°55' E 014°46'0 0.0
2017-Oct-18 15:58N 35°55' E 014°46'0 0.0
2017-Oct-18 15:25N 35°55' E 014°46'0 0.0
2017-Oct-18 14:58N 35°55' E 014°46'0 0.0
2017-Oct-18 13:58N 35°55' E 014°46'0 0.0
2017-Oct-18 13:28N 35°55' E 014°46'0 0.0
2017-Oct-18 12:58N 35°55' E 014°46'0 0.3
2017-Oct-18 12:26N 35°55' E 014°45'1 3.2
2017-Oct-18 12:00N 35°54' E 014°44'3 6.2
2017-Oct-18 11:30N 35°57' E 014°41'611.3
2017-Oct-18 11:00N 35°60' E 014°35'612.5
2017-Oct-18 10:30N 36°03' E 014°29'612.5
2017-Oct-18 10:00N 36°06' E 014°22'612.6
2017-Oct-18 09:30N 36°10' E 014°16'612.7
2017-Oct-18 09:00N 36°13' E 014°09'612.7
2017-Oct-18 08:30N 36°15' E 014°02'612.6
2017-Oct-18 08:00N 36°18' E 013°54'612.6
2017-Oct-18 07:30N 36°21' E 013°47'612.5
2017-Oct-18 07:00N 36°23' E 013°40'612.4
2017-Oct-18 06:30N 36°26' E 013°33'612.3
2017-Oct-18 06:00N 36°29' E 013°27'712.1
2017-Oct-18 05:27N 36°32' E 013°19'612.2
2017-Oct-18 05:00N 36°34' E 013°13'612.2
2017-Oct-18 04:30N 36°37' E 013°06'612.4
2017-Oct-18 04:00N 36°39' E 012°59'612.4
2017-Oct-18 03:30N 36°42' E 012°53'612.2
2017-Oct-18 02:59N 36°45' E 012°45'612.1
2017-Oct-18 02:30N 36°47' E 012°39'812.0
2017-Oct-18 01:48N 36°51' E 012°29'412.1
2017-Oct-18 01:27N 36°53' E 012°24'912.2
2017-Oct-18 00:45N 36°57' E 012°15'312.4
2017-Oct-18 00:30N 36°58' E 012°11'7012.5
2017-Oct-17 18:52N 37°27' E 010°51'412.1
2017-Oct-17 18:30N 37°28' E 010°45'612.0
2017-Oct-17 18:00N 37°30' E 010°38'612.1
2017-Oct-17 17:30N 37°31' E 010°31'1912.1
2017-Oct-17 15:57N 37°34' E 010°07'1612.6
2017-Oct-17 14:40N 37°31' E 009°47'212.5
2017-Oct-17 14:30N 37°31' E 009°45'10512.0
2017-Oct-17 05:46N 37°17' E 007°34'612.4
2017-Oct-17 05:19N 37°17' E 007°27'25412.5
2017-Oct-16 08:56N 36°52' E 002°10'612.9
2017-Oct-16 08:30N 36°51' E 002°04'4412.4
2017-Oct-16 04:57N 36°43' E 001°09'511.8
2017-Oct-16 04:30N 36°42' E 001°03'2611.3
2017-Oct-16 02:13N 36°37' E 000°31'411.9
2017-Oct-16 01:52N 36°37' E 000°26'4211.7
2017-Oct-15 22:18N 36°29' W 000°25'911.3
2017-Oct-15 21:31N 36°27' W 000°36'011.3
2017-Oct-15 21:30N 36°27' W 000°36'611.2
2017-Oct-15 20:57N 36°26' W 000°44'3411.7
2017-Oct-15 18:04N 36°20' W 001°25'312.1
2017-Oct-15 17:51N 36°19' W 001°28'17311.9
2017-Oct-15 03:20N 36°01' W 005°01'412.8
2017-Oct-15 03:00N 36°00' W 005°06'612.8
2017-Oct-15 02:30N 35°60' W 005°14'612.6
2017-Oct-15 02:00N 35°59' W 005°21'611.9
2017-Oct-15 01:30N 35°57' W 005°28'711.7
2017-Oct-15 00:55N 35°55' W 005°37'513.1
2017-Oct-15 00:30N 35°54' W 005°43'612.5
2017-Oct-15 00:00N 35°52' W 005°51'611.9
2017-Oct-14 23:28N 35°50' W 005°58'3811.5
2017-Oct-14 20:11N 35°22' W 006°29'312.1
2017-Oct-14 19:56N 35°20' W 006°31'  
2017-Oct-12 07:15N 33°07' W 008°38'0 0.0
2017-Oct-12 07:00N 33°07' W 008°38'0 0.0
2017-Oct-12 05:36N 33°07' W 008°38'0 0.1
2017-Oct-12 05:30N 33°07' W 008°38'0 0.0
2017-Oct-12 04:51N 33°07' W 008°38'0 0.0
2017-Oct-12 01:51N 33°07' W 008°38'  
2017-Oct-08 20:42N 33°15' W 008°39'2 9.0
2017-Oct-08 20:30N 33°17' W 008°37'  

Dump ship's entire track history